Flight Track Log - Related Links

Times and Time Zones

All times are in EDT time to prevent confusion due to time zone crossing. See the AAY817 flight status page for this flight to view local times or setup timezone preferences in your user account.

Time Position Orientation Groundspeed Altitude Reporting Facility
EDT Latitude Longitude Course Direction KTS MPH feet Rate Location/Type
Wed 09:54:15 AM 38.2321 -82.5297 18° North  Level FlightAware Approximate
Wed 09:54:59 AM 38.3133 -82.4956 172° South 216 249 3,500  Level Indianapolis Center
Wed 09:55:59 AM 38.2592 -82.4858 173° South 224 258 5,100 2,050 Climbing Indianapolis Center
Wed 09:56:59 AM 38.1861 -82.4736 171° South 244 281 7,600 2,550 Climbing Indianapolis Center
Wed 09:57:59 AM 38.1025 -82.4564 173° South 275 316 10,200 1,950 Climbing Indianapolis Center
Wed 09:58:59 AM 38.0147 -82.4419 172° South 318 366 11,500 1,750 Climbing Indianapolis Center
Wed 09:59:59 AM 37.9103 -82.4225 172° South 365 420 13,700 2,300 Climbing Indianapolis Center
Wed 10:00:59 AM 37.7994 -82.4031 172° South 394 453 16,100 2,350 Climbing Indianapolis Center
Wed 10:01:59 AM 37.6844 -82.3814 171° South 413 475 18,400 2,100 Climbing Indianapolis Center
Wed 10:02:59 AM 37.5694 -82.3594 172° South 422 486 20,300 1,750 Climbing Indianapolis Center
Wed 10:03:59 AM 37.4506 -82.3378 173° South 428 493 21,900 1,691 Climbing Indianapolis Center
Wed 10:05:28 AM 37.2617 -82.3072 172° South 449 517 24,500 1,651 Climbing Atlanta Center
Wed 10:06:28 AM 37.1258 -82.2842 171° South 449 517 26,000 1,950 Climbing Atlanta Center
Wed 10:07:28 AM 37.0006 -82.2586 173° South 454 522 28,400 1,650 Climbing Atlanta Center
Wed 10:08:28 AM 36.8792 -82.2406 172° South 454 522 29,300 1,300 Climbing Atlanta Center
Wed 10:09:28 AM 36.7558 -82.2200 182° South 454 522 31,000 1,400 Climbing Atlanta Center
Wed 10:10:28 AM 36.6350 -82.2253 183° South 440 506 32,100 1,000 Climbing Atlanta Center
Wed 10:11:28 AM 36.5142 -82.2331 182° South 440 506 33,000 800 Climbing Atlanta Center
Wed 10:12:28 AM 36.3933 -82.2386 183° South 440 506 33,700 500 Climbing Atlanta Center
Wed 10:13:28 AM 36.2706 -82.2464 182° South 440 506 34,000 150 Climbing Atlanta Center
Wed 10:14:28 AM 36.1494 -82.2517 183° South 440 506 34,000  Level Atlanta Center
Wed 10:15:29 AM 36.0286 -82.2594 182° South 440 506 34,000  Level Atlanta Center
Wed 10:16:28 AM 35.9036 -82.2647 183° South 440 506 34,000  Level Atlanta Center
Wed 10:17:29 AM 35.7806 -82.2725 184° South 440 506 34,000  Level Atlanta Center
Wed 10:18:28 AM 35.6597 -82.2828 183° South 435 501 34,000  Level Atlanta Center
Wed 10:19:28 AM 35.5369 -82.2906 183° South 446 513 34,000  Level Atlanta Center
Wed 10:20:28 AM 35.4158 -82.2983 183° South 438 504 34,000  Level Atlanta Center
Wed 10:21:28 AM 35.2931 -82.3058 182° South 438 504 34,000  Level Atlanta Center
Wed 10:22:28 AM 35.1803 -82.3108 181° South 438 504 34,000  Level Atlanta Center
Wed 10:23:28 AM 35.0594 -82.3133 183° South 438 504 34,000  Level Atlanta Center
Wed 10:24:29 AM 34.9383 -82.3208 182° South 438 504 34,000  Level Atlanta Center
Wed 10:25:28 AM 34.8028 -82.3261 183° South 443 510 34,000  Level Atlanta Center
Wed 10:26:28 AM 34.6778 -82.3339 182° South 437 503 34,000  Level Atlanta Center
Wed 10:27:28 AM 34.5567 -82.3389 183° South 443 510 34,000  Level Atlanta Center
Wed 10:28:28 AM 34.4317 -82.3464 182° South 443 510 34,000  Level Atlanta Center
Wed 10:29:29 AM 34.3086 -82.3514 183° South 443 510 34,000  Level Atlanta Center
Wed 10:30:28 AM 34.1939 -82.3586 183° South 443 510 34,000  Level Atlanta Center
Wed 10:31:28 AM 34.0647 -82.3661 183° South 451 519 34,000  Level Atlanta Center
Wed 10:32:28 AM 33.9436 -82.3736 182° South 451 519 34,000  Level Atlanta Center
Wed 10:33:28 AM 33.8186 -82.3786 183° South 451 519 34,000  Level Atlanta Center
Wed 10:34:28 AM 33.6831 -82.3861 182° South 454 522 34,000  Level Atlanta Center
Wed 10:35:28 AM 33.5556 -82.3911 184° South 441 507 34,000  Level Atlanta Center
Wed 10:36:28 AM 33.4347 -82.4008 182° South 441 507 34,000  Level Atlanta Center
Wed 10:37:28 AM 33.3158 -82.4056 183° South 441 507 34,000  Level Atlanta Center
Wed 10:38:28 AM 33.1992 -82.4128 183° South 446 513 34,000  Level Atlanta Center
Wed 10:39:28 AM 33.0781 -82.4200 182° South 446 513 34,000  Level Atlanta Center
Wed 10:40:28 AM 32.9550 -82.4247 183° South 441 507 34,000  Level Atlanta Center
Wed 10:42:22 AM 32.7147 -82.4408 182° South 438 504 34,000  Level Jacksonville Center
Wed 10:43:22 AM 32.5936 -82.4464 182° South 438 504 34,000  Level Jacksonville Center
Wed 10:44:22 AM 32.4706 -82.4519 181° South 438 504 34,000  Level Jacksonville Center
Wed 10:45:22 AM 32.3600 -82.4547 183° South 438 504 34,000  Level Jacksonville Center
Wed 10:46:22 AM 32.2389 -82.4628 183° South 438 504 34,000  Level Jacksonville Center
Wed 10:47:22 AM 32.1158 -82.4706 182° South 443 510 34,000  Level Jacksonville Center
Wed 10:48:22 AM 31.9906 -82.4761 182° South 448 516 34,000  Level Jacksonville Center
Wed 10:49:22 AM 31.8694 -82.4817 183° South 443 510 34,000  Level Jacksonville Center
Wed 10:50:22 AM 31.7461 -82.4894 181° South 443 510 34,000  Level Jacksonville Center
Wed 10:51:22 AM 31.6272 -82.4925 160° South 443 510 34,000  Level Jacksonville Center
Wed 10:52:22 AM 31.5144 -82.4442 147° Southeast 425 489 34,000  Level Jacksonville Center
Wed 10:53:22 AM 31.4117 -82.3667 148° Southeast 425 489 34,000  Level Jacksonville Center
Wed 10:54:22 AM 31.3111 -82.2919 147° Southeast 425 489 34,000  Level Jacksonville Center
Wed 10:55:22 AM 31.2083 -82.2150 154° Southeast 431 496 34,000  Level Jacksonville Center
Wed 10:56:22 AM 31.1017 -82.1550 184° South 431 496 34,000 -50 Level Jacksonville Center
Wed 10:57:22 AM 30.9828 -82.1656 186° South 413 475 33,900 -50 Descending Jacksonville Center
Wed 10:58:22 AM 30.8617 -82.1811 188° South 423 487 33,900 50 Level Jacksonville Center
Wed 10:59:22 AM 30.7406 -82.2014 187° South 428 493 34,000 50 Climbing Jacksonville Center
Wed 11:00:22 AM 30.6217 -82.2192 184° South 434 499 34,000  Level Jacksonville Center
Wed 11:01:22 AM 30.5008 -82.2294 188° South 434 499 34,000  Level Jacksonville Center
Wed 11:02:22 AM 30.3797 -82.2497 186° South 439 505 34,000  Level Jacksonville Center
Wed 11:03:22 AM 30.2608 -82.2650 186° South 444 511 34,000 -50 Level Jacksonville Center
Wed 11:04:22 AM 30.1419 -82.2800 189° South 439 505 33,900 -50 Descending Jacksonville Center
Wed 11:05:22 AM 30.0189 -82.3025 186° South 439 505 33,900 -700 Level Jacksonville Center
Wed 11:06:22 AM 29.8997 -82.3175 186° South 444 511 32,500 -1,650 Descending Jacksonville Center
Wed 11:07:22 AM 29.7831 -82.3325 187° South 439 505 30,600 -2,050 Descending Jacksonville Center
Wed 11:08:22 AM 29.6703 -82.3475 182° South 425 489 28,400 -2,100 Descending Jacksonville Center
Wed 11:09:22 AM 29.5575 -82.3531 175° South 415 478 26,400 -1,900 Descending Jacksonville Center
Wed 11:10:22 AM 29.4406 -82.3417 174° South 400 460 24,600 -1,750 Descending Jacksonville Center
Wed 11:11:22 AM 29.3361 -82.3281 174° South 388 447 22,900 -1,650 Descending Jacksonville Center
Wed 11:12:22 AM 29.2381 -82.3167 174° South 381 438 21,300 -1,700 Descending Jacksonville Center
Wed 11:13:22 AM 29.1442 -82.3053 174° South 362 417 19,500 -1,650 Descending Jacksonville Center
Wed 11:14:22 AM 29.0500 -82.2939 175° South 343 395 18,000 -1,350 Descending Jacksonville Center
Wed 11:15:22 AM 28.9644 -82.2850 173° South 333 383 16,800 -1,300 Descending Jacksonville Center
Wed 11:16:22 AM 28.8850 -82.2736 174° South 328 377 15,400 -1,254 Descending Jacksonville Center
Wed 11:18:43 AM 28.6833 -82.2500 190° South 294 338 12,600 -1,164 Descending Tampa TRACON
Wed 11:19:43 AM 28.6000 -82.2667 230° Southwest 300 345 11,500 -895 Descending Tampa TRACON
Wed 11:20:37 AM 28.5500 -82.3333 259° West 311 358 10,900 -661 Descending Tampa TRACON
Wed 11:21:32 AM 28.5333 -82.4333 249° West 317 365 10,300 -667 Descending Tampa TRACON
Wed 11:22:43 AM 28.5000 -82.5333 236° Southwest 304 350 9,500 -824 Descending Tampa TRACON
Wed 11:23:43 AM 28.4500 -82.6167 240° Southwest 303 349 8,500 -1,053 Descending Tampa TRACON
Wed 11:24:37 AM 28.4167 -82.6833 236° Southwest 299 344 7,500 -1,211 Descending Tampa TRACON
Wed 11:25:37 AM 28.3667 -82.7667 213° Southwest 280 322 6,200 -1,050 Descending Tampa TRACON
Wed 11:26:37 AM 28.3000 -82.8167 164° South 254 292 5,400 -750 Descending Tampa TRACON
Wed 11:27:37 AM 28.2500 -82.8000 164° South 218 251 4,700 -783 Descending Tampa TRACON
Wed 11:28:32 AM 28.2000 -82.7833 164° South 203 234 3,900 -900 Descending Tampa TRACON
Wed 11:29:37 AM 28.1500 -82.7667 139° Southeast 175 201 2,900 -750 Descending Tampa TRACON
Wed 11:30:32 AM 28.1167 -82.7333 164° South 171 197 2,400 -550 Descending Tampa TRACON
Wed 11:31:26 AM 28.0667 -82.7167 139° Southeast 173 199 1,900 -421 Descending Tampa TRACON
Wed 11:32:26 AM 28.0333 -82.6833 156° South 168 193 1,600 -333 Descending Tampa TRACON
Wed 11:33:32 AM 28.0000 -82.6667 210° Southwest 168 193 1,200 -429 Descending Tampa TRACON
Wed 11:34:32 AM 27.9500 -82.7000 210° Southwest 159 183 700 -500 Descending Tampa TRACON

Login

Don't have an account? Register now (free) for customized features, flight alerts, and more!